Time;durP1;ratioP1;P1;durP2;ratioP2;P2;SDS_P1;SDS_P2;PMS_P1;PMS_P2;Temp;Humidity;BMP_temperature;BMP_pressure;BME280_temperature;BME280_humidity;BME280_pressure;Samples;Min_cycle;Max_cycle;Signal;HPM_P1;HPM_P2
2022/11/28 00:01:55;;;;;;;8.43;2.38;;;10.70;99.90;;;;;;5035621;28;20071;-84
2022/11/28 00:04:21;;;;;;;12.50;2.42;;;10.70;99.90;;;;;;5039069;28;20084;-84
2022/11/28 00:06:49;;;;;;;6.90;2.17;;;10.70;99.90;;;;;;5038818;28;20461;-84
2022/11/28 00:09:17;;;;;;;10.88;2.40;;;10.70;99.90;;;;;;5020977;28;20033;-84
2022/11/28 00:11:45;;;;;;;7.72;1.85;;;10.70;99.90;;;;;;5021378;28;20601;-82
2022/11/28 00:14:12;;;;;;;9.60;2.47;;;10.70;99.90;;;;;;5038731;28;20025;-82
2022/11/28 00:16:38;;;;;;;12.32;2.58;;;10.70;99.90;;;;;;5020932;28;20041;-83
2022/11/28 00:19:04;;;;;;;12.68;2.58;;;10.60;99.90;;;;;;5038659;28;20026;-82
2022/11/28 00:21:34;;;;;;;10.95;2.13;;;10.70;99.90;;;;;;5009393;28;20116;-82
2022/11/28 00:24:00;;;;;;;9.25;2.08;;;10.70;99.90;;;;;;5020441;28;20033;-82
2022/11/28 00:26:35;;;;;;;14.73;2.22;;;10.70;99.90;;;;;;5038647;28;20024;-82
2022/11/28 00:29:01;;;;;;;7.45;1.75;;;10.70;99.90;;;;;;5013430;28;20048;-83
2022/11/28 00:31:29;;;;;;;9.48;1.95;;;10.70;99.90;;;;;;5018890;28;20021;-83
2022/11/28 00:33:55;;;;;;;7.25;1.67;;;10.80;99.90;;;;;;5018718;28;20022;-83
2022/11/28 00:36:22;;;;;;;8.95;2.17;;;10.80;99.90;;;;;;5032804;28;20489;-82
2022/11/28 00:38:48;;;;;;;13.25;2.00;;;10.90;99.90;;;;;;5037144;28;20071;-83
2022/11/28 00:41:18;;;;;;;11.73;2.63;;;10.90;99.90;;;;;;5016281;28;20053;-84
2022/11/28 00:43:45;;;;;;;10.15;2.05;;;10.90;99.90;;;;;;5033422;28;20022;-84
2022/11/28 00:46:12;;;;;;;7.97;2.03;;;10.90;99.90;;;;;;5013251;28;20029;-84
2022/11/28 00:48:38;;;;;;;8.65;2.30;;;10.90;99.90;;;;;;5020304;28;20490;-84
2022/11/28 00:51:10;;;;;;;9.98;2.03;;;10.80;99.90;;;;;;5038539;28;20048;-85
2022/11/28 00:53:36;;;;;;;9.27;2.58;;;10.80;99.90;;;;;;5020097;28;20129;-83
2022/11/28 00:56:06;;;;;;;6.97;2.10;;;10.80;99.90;;;;;;5038170;28;20021;-83
2022/11/28 00:58:35;;;;;;;9.88;1.92;;;10.80;99.90;;;;;;5019299;28;20033;-83
2022/11/28 01:01:14;;;;;;;11.02;2.45;;;10.80;99.90;;;;;;5010086;28;20032;-83
2022/11/28 01:03:40;;;;;;;11.40;2.38;;;10.80;99.90;;;;;;5020368;28;20022;-83
2022/11/28 01:06:07;;;;;;;10.43;2.65;;;10.80;99.90;;;;;;5020300;28;20116;-83
2022/11/28 01:08:33;;;;;;;7.75;1.92;;;10.80;99.90;;;;;;5036756;28;20053;-84
2022/11/28 01:10:59;;;;;;;6.82;2.03;;;10.80;99.90;;;;;;5036391;28;20024;-84
2022/11/28 01:13:25;;;;;;;7.50;2.33;;;10.80;99.90;;;;;;5037717;28;20025;-83
2022/11/28 01:15:50;;;;;;;5.22;1.95;;;10.80;99.90;;;;;;5019893;28;20529;-84
2022/11/28 01:18:16;;;;;;;9.13;2.40;;;10.80;99.90;;;;;;5016475;28;20661;-83
2022/11/28 01:20:42;;;;;;;8.63;2.05;;;10.70;99.90;;;;;;5011355;28;20036;-83
2022/11/28 01:23:07;;;;;;;10.05;2.00;;;10.70;99.90;;;;;;5034654;28;20040;-84
2022/11/28 01:25:33;;;;;;;6.10;2.00;;;10.70;99.90;;;;;;5019062;28;20037;-84
2022/11/28 01:27:59;;;;;;;8.68;1.92;;;10.70;99.90;;;;;;5019220;28;20389;-84
2022/11/28 01:30:25;;;;;;;5.25;1.95;;;10.70;99.90;;;;;;5010075;28;20048;-83
2022/11/28 01:32:51;;;;;;;6.60;1.77;;;10.70;99.90;;;;;;5015061;28;20133;-84
2022/11/28 01:35:16;;;;;;;7.65;1.75;;;10.60;99.90;;;;;;5037579;28;20021;-84
2022/11/28 01:37:42;;;;;;;5.13;1.88;;;10.60;99.90;;;;;;5019340;28;20855;-84
2022/11/28 01:40:10;;;;;;;5.13;1.73;;;10.50;99.90;;;;;;5011810;28;20114;-84
2022/11/28 01:42:35;;;;;;;4.30;1.60;;;10.50;99.90;;;;;;5035921;28;20413;-84
2022/11/28 01:45:11;;;;;;;4.00;1.52;;;10.50;99.90;;;;;;5037029;28;20021;-84
2022/11/28 01:47:36;;;;;;;6.72;2.08;;;10.50;99.90;;;;;;5037212;28;20104;-84
2022/11/28 01:50:04;;;;;;;6.25;1.95;;;10.40;99.90;;;;;;5031772;28;20538;-84
2022/11/28 01:52:30;;;;;;;7.45;1.92;;;10.30;99.90;;;;;;5019098;28;20021;-84
2022/11/28 01:54:59;;;;;;;12.98;2.47;;;10.30;99.90;;;;;;5019638;28;20085;-84
2022/11/28 01:57:26;;;;;;;12.30;2.42;;;10.30;99.90;;;;;;5037268;28;20456;-84
2022/11/28 02:00:03;;;;;;;13.50;2.55;;;10.20;99.90;;;;;;5019709;28;20425;-84
2022/11/28 02:02:54;;;;;;;13.68;2.58;;;10.20;99.90;;;;;;5025790;28;20116;-84
2022/11/28 02:05:20;;;;;;;10.50;2.88;;;10.10;99.90;;;;;;5033508;28;20039;-84
2022/11/28 02:07:47;;;;;;;11.00;2.30;;;10.20;99.90;;;;;;5011162;28;20069;-84
2022/11/28 02:10:22;;;;;;;10.63;2.40;;;10.10;99.90;;;;;;5034965;28;20030;-84
2022/11/28 02:13:23;;;;;;;10.50;2.80;;;10.10;99.90;;;;;;5010492;28;20026;-84
2022/11/28 02:16:14;;;;;;;10.25;2.38;;;10.10;99.90;;;;;;4974892;28;20037;-85
2022/11/28 02:18:43;;;;;;;6.75;2.17;;;10.10;99.90;;;;;;5023300;28;20063;-86
2022/11/28 02:21:17;;;;;;;8.90;2.20;;;10.10;99.90;;;;;;5012694;28;20112;-85
2022/11/28 02:23:54;;;;;;;7.70;2.03;;;10.00;99.90;;;;;;5019365;28;20026;-85
2022/11/28 02:26:29;;;;;;;8.80;1.95;;;10.10;99.90;;;;;;5031699;28;20042;-86
2022/11/28 02:29:19;;;;;;;7.43;2.28;;;10.00;99.90;;;;;;5036609;28;20095;-86
2022/11/28 02:32:17;;;;;;;6.70;1.83;;;10.00;99.90;;;;;;5028171;28;20022;-85
2022/11/28 02:35:04;;;;;;;6.65;2.35;;;10.00;99.90;;;;;;5026636;28;20988;-86
2022/11/28 02:38:15;;;;;;;5.13;1.83;;;10.00;99.90;;;;;;5036445;28;20033;-86
2022/11/28 02:40:58;;;;;;;6.32;2.25;;;10.00;99.90;;;;;;5016979;28;20018;-85
2022/11/28 02:43:50;;;;;;;8.90;1.88;;;9.90;99.90;;;;;;5019393;28;20036;-87
2022/11/28 02:46:17;;;;;;;8.18;1.90;;;9.90;99.90;;;;;;5035433;28;20048;-86
2022/11/28 02:48:56;;;;;;;12.52;2.13;;;9.90;99.90;;;;;;5016312;28;20026;-86
2022/11/28 02:51:27;;;;;;;8.70;2.00;;;9.80;99.90;;;;;;5002645;28;20062;-87
2022/11/28 02:53:54;;;;;;;7.57;1.83;;;9.80;99.90;;;;;;5018551;28;20021;-86
2022/11/28 02:56:22;;;;;;;9.65;2.10;;;9.80;99.90;;;;;;5020999;28;20486;-87
2022/11/28 02:58:48;;;;;;;9.05;1.88;;;9.80;99.90;;;;;;5019872;28;20091;-86
2022/11/28 03:01:26;;;;;;;9.65;1.95;;;9.80;99.90;;;;;;5013550;28;20116;-86
2022/11/28 03:04:05;;;;;;;7.10;2.25;;;9.80;99.90;;;;;;5035728;28;20033;-86
2022/11/28 03:06:39;;;;;;;10.05;2.13;;;9.80;99.90;;;;;;5030778;28;20025;-85
2022/11/28 03:09:07;;;;;;;;;;;9.70;99.90;;;;;;5022854;28;20112;-85
2022/11/28 03:11:51;;;;;;;6.88;1.83;;;9.70;99.90;;;;;;5018117;28;19909;-85
2022/11/28 03:14:19;;;;;;;8.55;2.33;;;9.70;99.90;;;;;;5021457;28;20040;-84
2022/11/28 03:16:53;;;;;;;4.68;1.52;;;9.60;99.90;;;;;;5016964;28;20041;-85
2022/11/28 03:19:38;;;;;;;6.03;1.70;;;9.60;99.90;;;;;;5028676;28;20088;-85
2022/11/28 03:22:25;;;;;;;8.73;1.90;;;9.60;99.90;;;;;;5031535;28;20112;-85
2022/11/28 03:25:12;;;;;;;8.90;2.20;;;9.60;99.90;;;;;;5039807;28;20038;-85
2022/11/28 03:27:46;;;;;;;8.93;2.25;;;9.60;99.90;;;;;;5021494;28;20064;-85
2022/11/28 03:30:28;;;;;;;10.68;2.25;;;9.50;99.90;;;;;;5008759;28;20030;-83
2022/11/28 03:32:56;;;;;;;9.63;2.00;;;9.60;99.90;;;;;;5020621;28;20083;-83
2022/11/28 03:35:28;;;;;;;6.25;1.77;;;9.50;99.90;;;;;;5021886;28;20076;-84
2022/11/28 03:37:59;;;;;;;13.23;2.38;;;9.50;99.90;;;;;;5019872;28;20486;-83
2022/11/28 03:40:29;;;;;;;7.75;1.75;;;9.50;99.90;;;;;;5020214;28;20030;-83
2022/11/28 03:43:02;;;;;;;11.13;2.22;;;9.50;99.90;;;;;;5021191;28;20048;-83
2022/11/28 03:45:34;;;;;;;8.15;2.10;;;9.50;99.90;;;;;;5037603;28;20108;-83
2022/11/28 03:48:08;;;;;;;11.32;2.00;;;9.50;99.90;;;;;;5038663;28;20097;-83
2022/11/28 03:50:44;;;;;;;7.25;1.90;;;9.50;99.90;;;;;;5038535;28;20398;-84
2022/11/28 03:53:16;;;;;;;9.35;2.40;;;9.50;99.90;;;;;;5012958;28;20056;-84
2022/11/28 03:56:03;;;;;;;8.87;2.03;;;9.50;99.90;;;;;;5020968;28;20025;-84
2022/11/28 03:59:12;;;;;;;6.45;1.85;;;9.50;99.90;;;;;;5038337;28;20032;-85
2022/11/28 04:01:52;;;;;;;5.85;2.00;;;9.50;99.90;;;;;;5020689;28;20044;-84
2022/11/28 04:04:25;;;;;;;11.63;2.28;;;9.50;99.90;;;;;;5028784;28;20116;-84
2022/11/28 04:07:04;;;;;;;8.00;1.80;;;9.50;99.90;;;;;;5018242;28;20025;-84
2022/11/28 04:09:43;;;;;;;6.13;1.60;;;9.50;99.90;;;;;;5039622;28;20021;-83
2022/11/28 04:12:20;;;;;;;6.60;1.80;;;9.50;99.90;;;;;;5034371;28;20022;-84
2022/11/28 04:14:52;;;;;;;7.93;1.67;;;9.50;99.90;;;;;;5038771;28;20026;-83
2022/11/28 04:17:34;;;;;;;11.65;1.88;;;9.50;99.90;;;;;;5021223;28;20567;-83
2022/11/28 04:20:10;;;;;;;8.30;1.90;;;9.50;99.90;;;;;;5003021;28;20029;-84
2022/11/28 04:22:46;;;;;;;7.30;2.17;;;9.50;99.90;;;;;;5019010;28;20030;-86
2022/11/28 04:25:15;;;;;;;5.72;1.52;;;9.40;99.90;;;;;;5019349;28;20056;-86
2022/11/28 04:27:47;;;;;;;5.60;1.90;;;9.40;99.90;;;;;;5033962;28;20018;-85
2022/11/28 04:30:13;;;;;;;5.72;1.50;;;9.50;99.90;;;;;;5021275;28;20085;-86
2022/11/28 04:32:45;;;;;;;5.57;1.67;;;9.50;99.90;;;;;;5021216;28;20524;-86
2022/11/28 04:35:16;;;;;;;7.20;1.83;;;9.60;99.90;;;;;;5021619;28;20022;-86
2022/11/28 04:37:47;;;;;;;6.75;1.63;;;9.50;99.90;;;;;;5021034;28;20079;-84
2022/11/28 04:40:14;;;;;;;4.65;1.42;;;9.50;99.90;;;;;;5021192;28;20028;-85
2022/11/28 04:42:54;;;;;;;9.20;1.77;;;9.50;99.90;;;;;;5020975;28;20031;-85
2022/11/28 04:45:46;;;;;;;7.45;1.60;;;9.50;99.90;;;;;;5037933;28;20064;-85
2022/11/28 04:48:12;;;;;;;4.50;1.40;;;9.50;99.90;;;;;;5019841;28;20042;-84
2022/11/28 04:50:52;;;;;;;6.70;1.23;;;9.50;99.90;;;;;;5020234;28;20041;-85
2022/11/28 04:53:34;;;;;;;6.18;1.38;;;9.50;99.90;;;;;;5038036;28;20030;-85
2022/11/28 04:56:05;;;;;;;4.05;1.30;;;9.50;99.90;;;;;;5019492;28;20029;-82
2022/11/28 04:58:43;;;;;;;5.45;1.70;;;9.50;99.90;;;;;;5020216;28;20052;-82
2022/11/28 05:01:13;;;;;;;4.10;1.02;;;9.50;99.90;;;;;;5037855;28;20108;-82
2022/11/28 05:03:39;;;;;;;9.95;1.60;;;9.40;99.90;;;;;;5019896;28;20033;-81
2022/11/28 05:06:07;;;;;;;4.70;1.55;;;9.40;99.90;;;;;;5037158;28;20029;-84
2022/11/28 05:08:32;;;;;;;3.80;1.10;;;9.30;99.90;;;;;;5037526;28;20029;-84
2022/11/28 05:10:58;;;;;;;5.80;1.48;;;9.40;99.90;;;;;;5019975;28;20112;-84
2022/11/28 05:13:23;;;;;;;6.72;1.50;;;9.40;99.90;;;;;;5037376;28;20069;-84
2022/11/28 05:15:49;;;;;;;6.32;1.25;;;9.30;99.90;;;;;;5033133;28;20049;-84
2022/11/28 05:18:15;;;;;;;8.38;1.52;;;9.30;99.90;;;;;;5017111;28;20033;-84
2022/11/28 05:20:42;;;;;;;5.32;1.25;;;9.30;99.90;;;;;;5016523;28;20374;-84
2022/11/28 05:23:07;;;;;;;2.70;1.05;;;9.30;99.90;;;;;;5013384;28;20036;-84
2022/11/28 05:25:33;;;;;;;7.07;1.40;;;9.40;99.90;;;;;;5019344;28;20088;-84
2022/11/28 05:27:58;;;;;;;6.20;1.60;;;9.30;99.90;;;;;;5017967;28;20026;-84
2022/11/28 05:30:24;;;;;;;3.80;0.95;;;9.30;99.90;;;;;;5009143;28;20014;-84
2022/11/28 05:32:50;;;;;;;7.68;1.50;;;9.30;99.90;;;;;;5008253;28;20029;-84
2022/11/28 05:35:15;;;;;;;6.03;1.45;;;9.30;99.90;;;;;;5019582;28;20144;-82
2022/11/28 05:37:41;;;;;;;7.22;1.33;;;9.30;99.90;;;;;;5032664;28;20397;-82
2022/11/28 05:40:07;;;;;;;7.53;1.50;;;9.30;99.90;;;;;;5036276;28;20022;-85
2022/11/28 05:42:34;;;;;;;5.78;1.38;;;9.40;99.90;;;;;;5007395;28;20091;-85
2022/11/28 05:45:00;;;;;;;4.35;1.17;;;9.40;99.90;;;;;;5017996;28;20406;-84
2022/11/28 05:47:25;;;;;;;3.60;1.45;;;9.40;99.90;;;;;;5010838;28;20033;-84
2022/11/28 05:49:51;;;;;;;6.60;1.35;;;9.40;99.90;;;;;;5015953;28;20018;-84
2022/11/28 05:52:17;;;;;;;5.03;1.30;;;9.40;99.90;;;;;;5032485;28;20025;-84
2022/11/28 05:54:42;;;;;;;4.55;1.30;;;9.40;99.90;;;;;;5018916;28;20029;-82
2022/11/28 05:57:08;;;;;;;4.22;1.15;;;9.50;99.90;;;;;;5026900;28;20033;-82
2022/11/28 05:59:34;;;;;;;4.65;1.17;;;9.50;99.90;;;;;;5017338;28;20025;-82
2022/11/28 06:02:00;;;;;;;5.38;1.55;;;9.50;99.90;;;;;;5032582;28;20033;-83
2022/11/28 06:04:25;;;;;;;7.95;1.63;;;9.50;99.90;;;;;;5033379;28;20430;-83
2022/11/28 06:06:51;;;;;;;8.32;1.23;;;9.50;99.90;;;;;;5028539;28;20057;-84
2022/11/28 06:09:17;;;;;;;3.35;1.08;;;9.50;99.90;;;;;;5034834;28;20049;-82
2022/11/28 06:11:43;;;;;;;5.57;1.17;;;9.50;99.90;;;;;;5025888;28;20021;-83
2022/11/28 06:14:09;;;;;;;8.10;1.38;;;9.40;99.90;;;;;;5017843;28;20022;-83
2022/11/28 06:16:35;;;;;;;5.55;1.38;;;9.40;99.90;;;;;;5019170;28;20049;-83
2022/11/28 06:19:03;;;;;;;3.88;1.25;;;9.40;99.90;;;;;;5017424;28;20026;-83
2022/11/28 06:21:40;;;;;;;7.00;1.40;;;9.40;99.90;;;;;;5036755;28;20029;-84
2022/11/28 06:24:06;;;;;;;4.55;1.10;;;9.40;99.90;;;;;;5019124;28;20021;-84
2022/11/28 06:26:31;;;;;;;8.48;1.52;;;9.40;99.90;;;;;;5036160;28;20028;-84
2022/11/28 06:28:57;;;;;;;6.38;1.60;;;9.40;99.90;;;;;;5021980;28;20041;-85
2022/11/28 06:31:29;;;;;;;7.68;1.75;;;9.30;99.90;;;;;;5039904;28;20033;-85
2022/11/28 06:33:55;;;;;;;6.90;1.80;;;9.30;99.90;;;;;;5023170;28;20025;-85
2022/11/28 06:36:21;;;;;;;5.18;1.40;;;9.40;99.90;;;;;;5012404;28;20117;-84
2022/11/28 06:38:47;;;;;;;8.18;1.25;;;9.40;99.90;;;;;;5022326;28;20041;-84
2022/11/28 06:41:16;;;;;;;6.22;1.25;;;9.40;99.90;;;;;;5038866;28;20037;-85
2022/11/28 06:43:41;;;;;;;5.82;1.30;;;9.40;99.90;;;;;;5039379;28;20060;-85
2022/11/28 06:46:16;;;;;;;3.40;0.85;;;9.40;99.90;;;;;;5016930;28;20490;-85
2022/11/28 06:48:42;;;;;;;4.22;1.05;;;9.40;99.90;;;;;;5021316;28;20017;-86
2022/11/28 06:51:07;;;;;;;5.07;1.15;;;9.40;99.90;;;;;;5023162;28;20367;-85
2022/11/28 06:53:34;;;;;;;4.85;1.17;;;9.40;99.90;;;;;;5022576;28;20021;-85
2022/11/28 06:56:05;;;;;;;4.80;1.40;;;9.50;99.90;;;;;;5011055;28;20588;-85
2022/11/28 06:58:30;;;;;;;6.45;1.50;;;9.40;99.90;;;;;;5020440;28;20561;-85
2022/11/28 07:00:56;;;;;;;8.18;1.80;;;9.40;99.90;;;;;;5024573;28;20033;-84
2022/11/28 07:03:22;;;;;;;7.07;1.40;;;9.40;99.90;;;;;;5039956;28;20100;-84
2022/11/28 07:05:47;;;;;;;5.50;1.15;;;9.40;99.90;;;;;;5022526;28;20037;-84
2022/11/28 07:08:13;;;;;;;3.45;1.17;;;9.40;99.90;;;;;;5039724;28;20021;-84
2022/11/28 07:10:39;;;;;;;4.57;1.13;;;9.40;99.90;;;;;;5022365;28;20080;-84
2022/11/28 07:13:04;;;;;;;5.82;1.70;;;9.40;99.90;;;;;;5040031;28;20045;-85
2022/11/28 07:15:30;;;;;;;4.82;1.48;;;9.40;99.90;;;;;;5040114;28;20049;-86
2022/11/28 07:17:56;;;;;;;3.83;1.15;;;9.30;99.90;;;;;;5022648;28;20026;-87
2022/11/28 07:20:21;;;;;;;5.88;1.30;;;9.30;99.90;;;;;;5040442;28;20052;-86
2022/11/28 07:22:47;;;;;;;3.83;1.13;;;9.30;99.90;;;;;;5022093;28;20116;-84
2022/11/28 07:25:14;;;;;;;4.75;1.02;;;9.30;99.90;;;;;;5039872;28;20065;-85
2022/11/28 07:27:41;;;;;;;4.68;1.30;;;9.30;99.90;;;;;;5022103;28;20052;-72
2022/11/28 07:30:08;;;;;;;5.15;1.35;;;9.30;99.90;;;;;;5010394;28;20483;-72
2022/11/28 07:32:34;;;;;;;4.03;1.10;;;9.30;99.90;;;;;;5002030;28;20024;-72
2022/11/28 07:34:59;;;;;;;5.35;1.60;;;9.30;99.90;;;;;;5002224;28;20080;-73
2022/11/28 07:37:25;;;;;;;6.32;1.60;;;9.30;99.90;;;;;;5036035;28;20477;-70
2022/11/28 07:39:51;;;;;;;6.78;1.35;;;9.30;99.90;;;;;;5038107;28;20030;-73
2022/11/28 07:42:16;;;;;;;4.78;1.17;;;9.20;99.90;;;;;;5034647;28;20497;-73
2022/11/28 07:44:42;;;;;;;7.18;1.48;;;9.30;99.90;;;;;;5038233;28;20477;-72
2022/11/28 07:47:08;;;;;;;5.60;1.50;;;9.30;99.90;;;;;;5038358;28;20036;-72
2022/11/28 07:49:33;;;;;;;5.07;1.05;;;9.30;99.90;;;;;;5038263;28;20058;-72
2022/11/28 07:51:59;;;;;;;6.07;1.17;;;9.20;99.90;;;;;;5035742;28;20025;-73
2022/11/28 07:54:25;;;;;;;5.07;1.08;;;9.20;99.90;;;;;;5038040;28;20052;-73
2022/11/28 07:56:51;;;;;;;3.58;1.25;;;9.20;99.90;;;;;;5037735;28;20493;-72
2022/11/28 07:59:16;;;;;;;5.28;1.40;;;9.20;99.90;;;;;;5038754;28;20486;-71
2022/11/28 08:01:42;;;;;;;3.50;1.20;;;9.20;99.90;;;;;;5020230;28;20025;-72
2022/11/28 08:04:08;;;;;;;7.13;1.67;;;9.20;99.90;;;;;;5018523;28;20040;-72
2022/11/28 08:06:38;;;;;;;4.15;1.40;;;9.20;99.90;;;;;;5035855;28;20394;-72
2022/11/28 08:09:05;;;;;;;5.05;1.35;;;9.20;99.90;;;;;;5016885;28;20060;-73
2022/11/28 08:11:31;;;;;;;7.78;1.55;;;9.20;99.90;;;;;;5009524;28;20049;-72
2022/11/28 08:13:57;;;;;;;4.43;1.38;;;9.10;99.90;;;;;;5029994;28;20025;-72
2022/11/28 08:16:25;;;;;;;3.30;1.40;;;9.10;99.90;;;;;;5001160;28;20052;-72
2022/11/28 08:18:51;;;;;;;4.60;1.40;;;9.10;99.90;;;;;;5019207;28;20474;-72
2022/11/28 08:21:20;;;;;;;5.18;1.25;;;9.10;99.90;;;;;;5019254;28;20049;-72
2022/11/28 08:23:46;;;;;;;5.35;1.13;;;9.20;99.90;;;;;;5018120;28;20403;-72
2022/11/28 08:26:15;;;;;;;4.00;1.05;;;9.20;99.90;;;;;;5036997;28;20026;-72
2022/11/28 08:28:42;;;;;;;5.25;1.42;;;9.30;99.90;;;;;;5038563;28;20029;-72
2022/11/28 08:31:13;;;;;;;3.92;1.30;;;9.30;99.90;;;;;;5021450;28;20026;-72
2022/11/28 08:33:39;;;;;;;4.72;1.27;;;9.30;99.90;;;;;;5018319;28;20053;-72
2022/11/28 08:36:06;;;;;;;4.63;1.50;;;9.40;99.90;;;;;;5024202;28;20026;-72
2022/11/28 08:38:32;;;;;;;4.88;1.30;;;9.50;99.90;;;;;;5037648;28;20403;-72
2022/11/28 08:41:09;;;;;;;3.28;1.20;;;9.50;99.90;;;;;;5036791;28;20108;-71
2022/11/28 08:43:36;;;;;;;4.40;1.27;;;9.60;99.90;;;;;;5020197;28;20398;-71
2022/11/28 08:46:03;;;;;;;4.40;1.60;;;9.60;99.90;;;;;;5020108;28;20017;-71
2022/11/28 08:48:29;;;;;;;4.93;1.50;;;9.60;99.90;;;;;;5038198;28;20025;-71
2022/11/28 08:50:55;;;;;;;4.38;1.23;;;9.70;99.90;;;;;;5019451;28;20017;-71
2022/11/28 08:53:21;;;;;;;5.95;1.23;;;9.70;99.90;;;;;;5037804;28;20025;-71
2022/11/28 08:55:47;;;;;;;3.45;1.20;;;9.70;99.90;;;;;;5037754;28;20061;-71
2022/11/28 08:58:13;;;;;;;6.05;1.50;;;9.70;99.90;;;;;;5037849;28;20037;-71
2022/11/28 09:00:41;;;;;;;3.30;1.17;;;9.70;99.90;;;;;;5037883;28;20033;-71
2022/11/28 09:03:09;;;;;;;3.90;1.23;;;9.80;99.90;;;;;;5019829;28;20029;-71
2022/11/28 09:05:34;;;;;;;4.32;1.15;;;9.80;99.90;;;;;;5037674;28;20064;-71
2022/11/28 09:08:00;;;;;;;2.25;1.00;;;9.80;99.90;;;;;;5037497;28;20092;-71
2022/11/28 09:10:26;;;;;;;7.40;1.13;;;9.80;99.90;;;;;;5037968;28;20076;-71
2022/11/28 09:12:51;;;;;;;4.07;1.50;;;9.70;99.90;;;;;;5037581;28;20032;-71
2022/11/28 09:15:18;;;;;;;7.03;1.45;;;9.70;99.90;;;;;;5019806;28;20124;-71
2022/11/28 09:17:44;;;;;;;4.57;1.48;;;9.60;99.90;;;;;;5037365;28;20113;-71
2022/11/28 09:20:10;;;;;;;4.82;1.77;;;9.70;99.90;;;;;;5024814;28;20024;-71
2022/11/28 09:22:36;;;;;;;4.38;1.38;;;9.60;99.90;;;;;;5037453;28;20029;-71
2022/11/28 09:25:01;;;;;;;7.25;1.70;;;9.60;99.90;;;;;;5037666;28;20037;-71
2022/11/28 09:27:27;;;;;;;5.47;1.00;;;9.60;99.90;;;;;;5037617;28;20030;-71
2022/11/28 09:29:52;;;;;;;5.57;1.40;;;9.60;99.90;;;;;;5031068;28;20052;-71
2022/11/28 09:32:18;;;;;;;7.57;0.90;;;9.60;99.90;;;;;;5017898;28;20470;-73
2022/11/28 09:34:44;;;;;;;2.70;0.95;;;9.60;99.90;;;;;;5000072;28;20030;-71
2022/11/28 09:37:09;;;;;;;6.07;1.20;;;9.60;99.90;;;;;;5015148;28;20033;-71
2022/11/28 09:39:35;;;;;;;2.30;0.95;;;9.60;99.90;;;;;;5019649;28;20390;-71
2022/11/28 09:42:11;;;;;;;4.50;1.13;;;9.60;99.90;;;;;;5037271;28;20040;-71
2022/11/28 09:44:52;;;;;;;5.07;1.10;;;9.60;99.90;;;;;;5037299;28;20025;-72
2022/11/28 09:47:28;;;;;;;3.15;0.85;;;9.70;99.90;;;;;;5019359;28;20036;-71
2022/11/28 09:50:14;;;;;;;3.33;1.08;;;9.70;99.90;;;;;;5037056;28;20028;-70
2022/11/28 09:52:55;;;;;;;3.45;0.88;;;9.80;99.90;;;;;;5035111;28;20021;-72
2022/11/28 09:55:54;;;;;;;8.27;1.30;;;9.80;99.90;;;;;;5035003;28;20018;-73
2022/11/28 09:58:42;;;;;;;4.75;0.80;;;9.80;99.90;;;;;;5016066;28;20042;-72
2022/11/28 10:01:17;;;;;;;5.88;1.13;;;9.80;99.90;;;;;;5018142;28;20033;-72
2022/11/28 10:03:52;;;;;;;4.28;1.00;;;9.80;99.90;;;;;;5040627;28;20021;-73
2022/11/28 10:06:44;;;;;;;6.15;0.90;;;9.80;99.90;;;;;;5041140;28;20021;-73
2022/11/28 10:09:29;;;;;;;4.43;0.70;;;9.90;99.90;;;;;;5041539;28;20113;-72
2022/11/28 10:12:32;;;;;;;4.80;1.30;;;9.90;99.90;;;;;;5041193;28;20029;-73
2022/11/28 10:15:28;;;;;;;3.35;0.80;;;9.90;99.90;;;;;;5040938;28;20056;-73
2022/11/28 10:18:16;;;;;;;3.10;0.73;;;9.90;99.90;;;;;;5041006;28;20033;-72
2022/11/28 10:20:45;;;;;;;2.67;1.23;;;10.00;99.90;;;;;;5041186;28;20025;-72
2022/11/28 10:23:39;;;;;;;6.13;1.00;;;10.00;99.90;;;;;;5040646;28;20026;-73
2022/11/28 10:26:12;;;;;;;4.65;0.98;;;9.90;99.90;;;;;;5040907;28;20036;-72
2022/11/28 10:28:41;;;;;;;5.47;0.80;;;9.80;99.90;;;;;;5041123;28;20025;-72
2022/11/28 10:31:32;;;;;;;3.40;0.85;;;9.60;99.90;;;;;;5040865;28;20022;-73
2022/11/28 10:34:07;;;;;;;0.93;0.60;;;9.40;99.90;;;;;;5040894;28;20497;-73
2022/11/28 10:36:56;;;;;;;3.15;0.90;;;9.20;99.90;;;;;;5015067;28;20041;-73
2022/11/28 10:39:24;;;;;;;2.28;0.63;;;9.10;99.90;;;;;;4985218;28;20495;-73
2022/11/28 10:42:12;;;;;;;4.07;0.60;;;9.00;99.90;;;;;;5040672;28;20029;-73
2022/11/28 10:45:10;;;;;;;5.55;0.80;;;9.00;99.90;;;;;;5040570;28;20033;-73
2022/11/28 10:47:51;;;;;;;6.75;0.90;;;9.10;99.90;;;;;;5040407;28;20032;-71
2022/11/28 10:50:19;;;;;;;4.32;0.60;;;9.10;99.90;;;;;;5040585;28;20482;-73
2022/11/28 10:53:17;;;;;;;4.53;0.80;;;9.10;99.90;;;;;;5022550;28;20425;-73
2022/11/28 10:56:04;;;;;;;2.35;0.50;;;9.20;99.90;;;;;;5022545;28;20025;-73
2022/11/28 10:58:53;;;;;;;2.42;0.57;;;9.20;99.90;;;;;;5040409;28;20033;-73
2022/11/28 11:01:20;;;;;;;2.05;0.70;;;9.20;99.90;;;;;;5040343;28;20029;-73
2022/11/28 11:03:47;;;;;;;2.38;0.55;;;9.20;99.90;;;;;;5040130;28;20029;-73
2022/11/28 11:06:13;;;;;;;1.65;0.70;;;9.30;99.90;;;;;;5022217;28;20082;-73
2022/11/28 11:08:40;;;;;;;1.58;0.52;;;9.30;99.90;;;;;;5040541;28;20064;-73
2022/11/28 11:11:24;;;;;;;2.60;0.80;;;9.40;99.90;;;;;;5040323;28;20013;-73
2022/11/28 11:13:59;;;;;;;2.15;0.65;;;9.40;99.90;;;;;;5021202;28;20025;-73
2022/11/28 11:16:44;;;;;;;2.58;0.60;;;9.50;99.90;;;;;;5039638;28;20099;-73
2022/11/28 11:19:28;;;;;;;3.65;0.68;;;9.50;99.90;;;;;;5040104;28;20037;-71
2022/11/28 11:22:02;;;;;;;2.05;0.55;;;9.60;99.90;;;;;;5029013;28;20025;-73
2022/11/28 11:24:29;;;;;;;3.92;0.85;;;9.60;99.90;;;;;;5022011;28;20033;-73
2022/11/28 11:27:11;;;;;;;3.17;0.85;;;9.60;99.90;;;;;;5020038;28;20022;-73
2022/11/28 11:29:37;;;;;;;5.47;0.63;;;9.70;99.90;;;;;;5036335;28;20037;-72
2022/11/28 11:32:05;;;;;;;2.97;0.88;;;9.70;99.90;;;;;;5026914;28;20113;-73
2022/11/28 11:34:42;;;;;;;3.38;0.70;;;9.70;99.90;;;;;;5023012;28;20021;-72
2022/11/28 11:37:27;;;;;;;2.05;0.55;;;9.70;99.90;;;;;;5025234;28;20040;-72
2022/11/28 11:39:53;;;;;;;2.30;0.65;;;9.80;99.90;;;;;;5008211;28;20060;-72
2022/11/28 11:42:25;;;;;;;2.05;0.70;;;9.80;99.90;;;;;;5021329;28;20033;-72
2022/11/28 11:44:51;;;;;;;3.35;0.70;;;9.90;99.90;;;;;;5039222;28;20030;-72
2022/11/28 11:47:18;;;;;;;2.13;0.65;;;9.90;99.90;;;;;;5039315;28;20402;-72
2022/11/28 11:49:49;;;;;;;2.30;0.63;;;10.00;99.90;;;;;;5020149;28;20021;-72
2022/11/28 11:52:22;;;;;;;2.67;0.90;;;9.90;99.90;;;;;;5039085;28;20126;-72
2022/11/28 11:54:57;;;;;;;2.92;0.85;;;10.00;99.90;;;;;;5039429;28;20041;-71
2022/11/28 11:57:36;;;;;;;2.72;0.90;;;10.00;99.90;;;;;;5014640;28;20029;-70
2022/11/28 12:00:21;;;;;;;3.53;0.95;;;10.00;99.90;;;;;;5032712;28;20065;-71
2022/11/28 12:02:58;;;;;;;5.25;0.88;;;10.10;99.90;;;;;;5019372;28;20022;-71
2022/11/28 12:05:48;;;;;;;6.20;1.33;;;10.10;99.90;;;;;;5019095;28;20041;-71
2022/11/28 12:08:36;;;;;;;3.20;0.90;;;10.20;99.90;;;;;;5019002;28;20014;-72
2022/11/28 12:11:13;;;;;;;3.72;0.70;;;10.20;99.90;;;;;;5018525;28;20042;-71
2022/11/28 12:13:39;;;;;;;4.32;0.93;;;10.30;99.90;;;;;;5019007;28;20018;-70
2022/11/28 12:16:23;;;;;;;2.58;0.90;;;10.30;99.90;;;;;;5018941;28;20508;-72
2022/11/28 12:18:48;;;;;;;;;;;10.30;99.90;;;;;;5009188;28;20087;-70
2022/11/28 12:21:49;;;;;;;3.88;1.10;;;10.40;99.90;;;;;;5038311;28;19905;-69
2022/11/28 12:24:19;;;;;;;2.08;0.80;;;10.40;99.90;;;;;;5037846;28;20046;-69
2022/11/28 12:27:17;;;;;;;6.15;1.10;;;10.50;99.90;;;;;;5038279;28;20048;-75
2022/11/28 12:30:17;;;;;;;3.97;0.95;;;10.60;99.90;;;;;;5019936;28;20040;-71
2022/11/28 12:32:57;;;;;;;6.97;1.02;;;10.60;99.90;;;;;;5038432;28;20026;-71
2022/11/28 12:35:31;;;;;;;3.58;1.05;;;10.70;99.90;;;;;;5029317;28;20026;-71
2022/11/28 12:37:57;;;;;;;3.38;0.95;;;10.70;99.90;;;;;;5038097;28;20026;-72
2022/11/28 12:40:54;;;;;;;5.38;0.80;;;10.70;99.90;;;;;;5034673;28;20084;-72
2022/11/28 12:43:36;;;;;;;2.95;0.82;;;10.80;99.90;;;;;;4994816;28;20437;-72
2022/11/28 12:46:17;;;;;;;5.95;1.40;;;10.80;99.90;;;;;;5038062;28;20390;-70
2022/11/28 12:49:09;;;;;;;2.67;0.73;;;10.90;99.90;;;;;;5023103;28;20092;-71
2022/11/28 12:51:37;;;;;;;5.95;1.13;;;10.90;99.90;;;;;;5018250;28;20422;-73
2022/11/28 12:54:03;;;;;;;6.38;1.00;;;11.00;99.90;;;;;;5000444;28;20117;-72
2022/11/28 12:56:43;;;;;;;6.22;1.20;;;11.00;99.90;;;;;;5027972;28;20065;-71
2022/11/28 12:59:21;;;;;;;5.05;1.00;;;11.00;99.90;;;;;;5025595;28;20025;-71
2022/11/28 13:02:17;;;;;;;3.85;0.77;;;11.00;99.90;;;;;;5033872;28;20060;-72
2022/11/28 13:05:04;;;;;;;12.48;1.10;;;11.00;99.90;;;;;;5017935;28;20037;-71
2022/11/28 13:08:00;;;;;;;3.70;0.80;;;11.00;99.90;;;;;;5008729;28;20064;-71
2022/11/28 13:10:43;;;;;;;5.32;0.90;;;11.00;99.90;;;;;;5024441;28;20037;-74
2022/11/28 13:13:16;;;;;;;4.32;0.82;;;11.10;99.90;;;;;;5005370;28;20029;-74
2022/11/28 13:15:59;;;;;;;3.58;0.88;;;11.10;99.90;;;;;;5019817;28;20049;-73
2022/11/28 13:18:34;;;;;;;4.10;0.90;;;11.10;99.90;;;;;;5032859;28;20080;-74
2022/11/28 13:21:18;;;;;;;4.05;1.00;;;11.20;99.90;;;;;;5031720;28;20076;-73